Time;durP1;ratioP1;P1;durP2;ratioP2;P2;SDS_P1;SDS_P2;PMS_P1;PMS_P2;Temp;Humidity;BMP_temperature;BMP_pressure;BME280_temperature;BME280_humidity;BME280_pressure;Samples;Min_cycle;Max_cycle;Signal;HPM_P1;HPM_P2
2024/04/07 00:00:23;;;;;;;3.33;2.60;;;18.70;50.40;;;;;;6185142;23;20154;-78
2024/04/07 00:03:06;;;;;;;4.63;2.97;;;18.70;50.40;;;;;;6182642;23;20155;-77
2024/04/07 00:05:32;;;;;;;4.60;2.90;;;18.70;50.40;;;;;;6181835;23;20372;-77
2024/04/07 00:07:58;;;;;;;4.43;2.70;;;18.60;50.40;;;;;;6182078;23;20598;-78
2024/04/07 00:10:24;;;;;;;6.43;2.47;;;18.60;50.30;;;;;;6207621;23;20142;-79
2024/04/07 00:12:49;;;;;;;3.83;2.40;;;18.60;50.30;;;;;;6209176;23;20165;-79
2024/04/07 00:15:17;;;;;;;4.60;3.20;;;18.70;50.30;;;;;;6211536;23;20154;-80
2024/04/07 00:17:46;;;;;;;3.00;2.27;;;18.70;50.20;;;;;;6208539;23;20364;-77
2024/04/07 00:20:19;;;;;;;5.00;3.10;;;18.70;50.80;;;;;;6210452;23;20197;-78
2024/04/07 00:22:45;;;;;;;4.67;2.70;;;18.70;50.20;;;;;;6183292;23;20421;-78
2024/04/07 00:25:11;;;;;;;3.90;3.00;;;18.70;50.10;;;;;;6159721;23;20333;-79
2024/04/07 00:27:37;;;;;;;3.60;1.97;;;18.70;50.00;;;;;;6209955;23;20178;-78
2024/04/07 00:30:03;;;;;;;3.27;2.10;;;18.70;49.70;;;;;;6160762;23;20146;-79
2024/04/07 00:32:31;;;;;;;3.07;1.93;;;18.80;49.50;;;;;;6181794;23;20218;-77
2024/04/07 00:34:57;;;;;;;5.07;2.97;;;18.80;49.30;;;;;;6185292;23;20374;-79
2024/04/07 00:37:26;;;;;;;7.13;2.07;;;18.80;49.10;;;;;;6183637;23;20617;-78
2024/04/07 00:39:52;;;;;;;4.20;2.00;;;18.80;48.90;;;;;;6182071;23;20135;-78
2024/04/07 00:42:20;;;;;;;3.23;1.63;;;18.90;48.90;;;;;;6182742;23;20477;-80
2024/04/07 00:44:47;;;;;;;3.27;1.50;;;18.90;48.90;;;;;;6183451;23;20358;-77
2024/04/07 00:47:14;;;;;;;3.17;2.00;;;18.80;48.90;;;;;;6181960;23;20449;-77
2024/04/07 00:49:44;;;;;;;3.30;2.13;;;18.80;48.90;;;;;;6182962;23;20353;-78
2024/04/07 00:52:12;;;;;;;2.50;1.50;;;18.80;49.00;;;;;;6205695;23;20374;-77
2024/04/07 00:54:41;;;;;;;2.07;1.40;;;18.70;48.90;;;;;;6155962;23;20378;-77
2024/04/07 00:57:09;;;;;;;3.47;2.07;;;18.70;49.10;;;;;;6206507;23;20398;-77
2024/04/07 00:59:36;;;;;;;2.57;1.80;;;18.70;49.10;;;;;;6182208;23;20405;-76
2024/04/07 01:02:03;;;;;;;4.90;2.27;;;18.60;49.10;;;;;;6155354;23;20381;-77
2024/04/07 01:04:28;;;;;;;5.40;2.33;;;18.70;49.10;;;;;;6179316;23;20893;-75
2024/04/07 01:06:55;;;;;;;7.27;1.97;;;18.70;49.10;;;;;;6206119;23;20422;-76
2024/04/07 01:09:22;;;;;;;2.43;1.67;;;18.70;49.00;;;;;;6181230;23;20209;-77
2024/04/07 01:11:47;;;;;;;3.40;1.90;;;18.80;48.80;;;;;;6179909;23;20408;-77
2024/04/07 01:14:23;;;;;;;2.80;1.40;;;18.80;48.70;;;;;;6206270;23;20362;-79
2024/04/07 01:16:50;;;;;;;2.33;1.40;;;18.80;48.70;;;;;;6203920;23;20174;-76
2024/04/07 01:19:16;;;;;;;2.30;1.50;;;18.80;48.70;;;;;;6203217;23;20450;-77
2024/04/07 01:21:42;;;;;;;2.70;1.73;;;18.90;48.80;;;;;;6154096;23;20378;-78
2024/04/07 01:24:09;;;;;;;3.53;2.03;;;18.90;48.80;;;;;;6206356;23;20146;-78
2024/04/07 01:26:35;;;;;;;3.73;2.20;;;18.90;48.80;;;;;;6154415;23;20461;-80
2024/04/07 01:29:01;;;;;;;3.40;2.47;;;18.90;48.80;;;;;;6158203;23;20410;-77
2024/04/07 01:31:26;;;;;;;4.87;2.17;;;18.90;48.90;;;;;;6206818;23;20378;-77
2024/04/07 01:33:53;;;;;;;4.67;1.83;;;18.90;49.00;;;;;;6154261;23;20389;-78
2024/04/07 01:36:19;;;;;;;2.33;1.40;;;18.90;49.00;;;;;;6181037;23;20238;-77
2024/04/07 01:38:45;;;;;;;3.37;2.03;;;18.80;49.10;;;;;;6207918;23;20551;-77
2024/04/07 01:41:11;;;;;;;4.10;1.50;;;18.80;49.20;;;;;;6181811;23;20378;-78
2024/04/07 01:43:37;;;;;;;5.67;1.80;;;18.80;49.20;;;;;;6153545;23;20171;-76
2024/04/07 01:46:04;;;;;;;3.40;1.90;;;18.80;49.40;;;;;;6207115;23;20178;-76
2024/04/07 01:48:29;;;;;;;4.23;1.40;;;18.80;49.30;;;;;;6181241;23;20199;-76
2024/04/07 01:50:55;;;;;;;2.27;1.40;;;18.80;49.40;;;;;;6180657;23;20752;-77
2024/04/07 01:53:31;;;;;;;5.07;1.60;;;18.80;49.40;;;;;;6156769;23;20131;-78
2024/04/07 01:55:57;;;;;;;5.60;1.30;;;18.70;49.50;;;;;;6203985;23;20452;-76
2024/04/07 01:58:24;;;;;;;3.20;1.80;;;18.70;49.60;;;;;;6204511;23;20368;-76
2024/04/07 02:00:51;;;;;;;1.83;1.30;;;18.70;49.70;;;;;;6178898;23;20430;-75
2024/04/07 02:03:17;;;;;;;2.17;1.23;;;18.60;49.80;;;;;;6142012;23;20384;-76
2024/04/07 02:05:44;;;;;;;2.90;1.53;;;18.60;50.00;;;;;;6116074;23;20158;-74
2024/04/07 02:08:10;;;;;;;2.13;1.57;;;18.50;50.00;;;;;;6140633;23;20151;-76
2024/04/07 02:10:35;;;;;;;1.80;1.10;;;18.50;50.10;;;;;;6143913;23;20425;-76
2024/04/07 02:13:02;;;;;;;2.70;1.23;;;18.50;50.20;;;;;;6141211;23;20356;-79
2024/04/07 02:15:29;;;;;;;3.13;1.60;;;18.50;50.30;;;;;;6142905;23;20712;-77
2024/04/07 02:17:54;;;;;;;2.60;1.40;;;18.50;50.40;;;;;;6143259;23;20396;-76
2024/04/07 02:20:20;;;;;;;2.00;1.33;;;18.50;50.50;;;;;;6116380;23;20423;-75
2024/04/07 02:22:46;;;;;;;4.13;2.23;;;18.40;50.60;;;;;;6142352;23;20160;-76
2024/04/07 02:25:12;;;;;;;2.73;1.50;;;18.50;50.70;;;;;;6115439;23;20202;-75
2024/04/07 02:27:38;;;;;;;2.60;1.33;;;18.40;50.70;;;;;;6116702;23;20243;-76
2024/04/07 02:30:04;;;;;;;1.80;1.30;;;18.40;50.80;;;;;;6138128;23;20136;-75
2024/04/07 02:32:32;;;;;;;2.40;1.30;;;18.30;50.80;;;;;;6140754;23;20496;-77
2024/04/07 02:34:58;;;;;;;2.30;1.53;;;18.30;51.00;;;;;;6117167;23;20380;-76
2024/04/07 02:37:23;;;;;;;2.23;1.50;;;18.30;51.10;;;;;;6136939;23;20386;-74
2024/04/07 02:39:49;;;;;;;4.43;1.60;;;18.20;51.20;;;;;;6148646;23;20158;-77
2024/04/07 02:42:16;;;;;;;2.67;1.50;;;18.30;51.40;;;;;;6176488;23;20142;-76
2024/04/07 02:50:10;;;;;;;3.77;2.13;;;18.30;51.50;;;;;;6202839;23;20366;-75
2024/04/07 02:52:36;;;;;;;4.07;1.70;;;18.30;51.70;;;;;;6174725;23;20370;-74
2024/04/07 02:55:02;;;;;;;2.87;1.90;;;18.30;51.90;;;;;;6173651;23;20259;-76
2024/04/07 02:57:28;;;;;;;2.13;1.60;;;18.30;52.10;;;;;;6174739;23;20173;-74
2024/04/07 02:59:54;;;;;;;6.00;1.77;;;18.30;52.30;;;;;;6174972;23;20385;-75
2024/04/07 03:02:20;;;;;;;2.40;1.40;;;18.40;52.60;;;;;;6174221;23;20162;-74
2024/04/07 03:04:49;;;;;;;3.13;1.63;;;18.40;52.90;;;;;;6197843;23;20362;-74
2024/04/07 03:07:15;;;;;;;2.80;1.97;;;18.40;53.00;;;;;;6171932;23;20388;-76
2024/04/07 03:09:40;;;;;;;4.07;1.83;;;18.40;53.50;;;;;;6198618;23;20386;-76
2024/04/07 03:12:06;;;;;;;2.90;1.67;;;18.40;53.60;;;;;;6145077;23;20186;-75
2024/04/07 03:14:32;;;;;;;3.37;1.90;;;18.40;54.00;;;;;;6171937;23;20214;-75
2024/04/07 03:16:58;;;;;;;8.30;2.33;;;18.50;54.70;;;;;;6198519;23;20749;-75
2024/04/07 03:19:24;;;;;;;3.37;2.07;;;18.50;55.20;;;;;;6198009;23;20230;-74
2024/04/07 03:21:49;;;;;;;5.40;1.80;;;18.50;55.60;;;;;;6197481;23;20143;-74
2024/04/07 03:24:15;;;;;;;4.00;1.90;;;18.40;56.00;;;;;;6172576;23;20139;-74
2024/04/07 03:26:40;;;;;;;7.60;2.00;;;18.40;56.40;;;;;;6173138;23;20190;-75
2024/04/07 03:29:06;;;;;;;5.43;2.20;;;18.40;56.70;;;;;;6172842;23;20515;-75
2024/04/07 03:31:32;;;;;;;4.00;1.90;;;18.40;57.20;;;;;;6200253;23;20135;-76
2024/04/07 03:33:57;;;;;;;10.23;2.40;;;18.40;57.50;;;;;;6174555;23;20459;-76
2024/04/07 03:36:23;;;;;;;3.30;1.63;;;18.30;57.90;;;;;;6198296;23;20242;-75
2024/04/07 03:38:49;;;;;;;4.30;1.90;;;18.30;58.10;;;;;;6173227;23;20151;-75
2024/04/07 03:41:14;;;;;;;5.37;1.87;;;18.30;58.20;;;;;;6199509;23;20143;-77
2024/04/07 03:43:40;;;;;;;3.30;1.27;;;18.30;58.50;;;;;;6200335;23;20337;-76
2024/04/07 03:46:06;;;;;;;4.30;1.80;;;18.20;58.60;;;;;;6201099;23;20197;-76
2024/04/07 03:48:32;;;;;;;3.90;2.33;;;18.20;59.00;;;;;;6201390;23;20384;-75
2024/04/07 03:50:57;;;;;;;3.00;1.87;;;18.20;59.30;;;;;;6203676;23;20142;-76
2024/04/07 03:53:28;;;;;;;5.53;2.10;;;18.20;60.20;;;;;;6200226;23;20373;-74
2024/04/07 03:55:53;;;;;;;5.33;2.10;;;18.20;59.80;;;;;;6147853;23;20142;-75
2024/04/07 03:58:19;;;;;;;4.50;2.60;;;18.10;60.10;;;;;;6196528;23;20485;-75
2024/04/07 04:00:45;;;;;;;3.90;1.70;;;18.10;60.70;;;;;;6172863;23;20166;-76
2024/04/07 04:03:10;;;;;;;8.20;2.10;;;18.10;61.00;;;;;;6174764;23;20180;-75
2024/04/07 04:05:36;;;;;;;4.27;1.77;;;18.10;61.70;;;;;;6173501;23;20257;-75
2024/04/07 04:08:02;;;;;;;6.13;1.87;;;18.10;62.40;;;;;;6199084;23;20272;-75
2024/04/07 04:10:28;;;;;;;3.23;2.13;;;18.00;62.30;;;;;;6201533;23;20197;-75
2024/04/07 04:12:54;;;;;;;3.97;1.80;;;18.00;62.60;;;;;;6174634;23;20450;-75
2024/04/07 04:15:20;;;;;;;2.60;1.40;;;18.00;62.80;;;;;;6199219;23;20355;-78
2024/04/07 04:17:46;;;;;;;5.90;2.50;;;17.90;63.10;;;;;;6175843;23;20174;-76
2024/04/07 04:20:11;;;;;;;5.70;2.07;;;17.90;63.40;;;;;;6201423;23;20536;-74
2024/04/07 04:22:37;;;;;;;3.97;2.00;;;17.90;63.60;;;;;;6198801;23;20150;-75
2024/04/07 04:25:03;;;;;;;4.73;2.23;;;17.80;64.10;;;;;;6174558;23;20503;-75
2024/04/07 04:27:30;;;;;;;14.53;2.80;;;17.70;64.10;;;;;;6173682;23;20186;-74
2024/04/07 04:29:56;;;;;;;5.83;2.17;;;17.70;64.70;;;;;;6197841;23;20724;-74
2024/04/07 04:32:22;;;;;;;4.33;2.17;;;17.70;65.00;;;;;;6173648;23;20524;-76
2024/04/07 04:34:47;;;;;;;7.30;1.97;;;17.60;65.30;;;;;;6173122;23;20249;-76
2024/04/07 04:37:13;;;;;;;4.40;1.70;;;17.60;65.80;;;;;;6173472;23;20420;-74
2024/04/07 04:39:39;;;;;;;8.73;2.67;;;17.50;65.80;;;;;;6200041;23;20530;-76
2024/04/07 04:42:05;;;;;;;5.97;2.10;;;17.50;66.30;;;;;;6172576;23;20162;-75
2024/04/07 04:44:31;;;;;;;8.60;2.30;;;17.40;66.50;;;;;;6199303;23;20407;-76
2024/04/07 04:46:57;;;;;;;4.70;2.20;;;17.40;66.80;;;;;;6200437;23;20417;-75
2024/04/07 04:49:22;;;;;;;7.33;1.90;;;17.40;67.00;;;;;;6173535;23;20141;-74
2024/04/07 04:51:49;;;;;;;6.17;2.17;;;17.40;67.50;;;;;;6201269;23;20142;-75
2024/04/07 04:54:14;;;;;;;6.07;2.40;;;17.30;67.60;;;;;;6201704;23;20118;-76
2024/04/07 04:56:40;;;;;;;3.77;1.87;;;17.30;68.10;;;;;;6149938;23;20400;-74
2024/04/07 04:59:06;;;;;;;5.13;2.13;;;17.20;68.40;;;;;;6200610;23;20173;-75
2024/04/07 05:01:32;;;;;;;4.90;2.27;;;17.20;68.80;;;;;;6199313;23;20139;-75
2024/04/07 05:04:00;;;;;;;4.50;2.00;;;17.10;69.00;;;;;;6172148;23;20542;-74
2024/04/07 05:06:26;;;;;;;3.60;1.60;;;17.10;70.30;;;;;;6199138;23;20420;-75
2024/04/07 05:08:51;;;;;;;2.17;1.60;;;17.10;69.70;;;;;;6201565;23;20624;-75
2024/04/07 05:11:17;;;;;;;2.70;1.70;;;17.10;69.90;;;;;;6199674;23;20135;-75
2024/04/07 05:13:44;;;;;;;4.33;1.80;;;17.10;70.40;;;;;;6173006;23;20221;-75
2024/04/07 05:16:10;;;;;;;5.73;2.10;;;17.10;70.50;;;;;;6174677;23;20487;-76
2024/04/07 05:18:36;;;;;;;3.00;1.47;;;17.10;70.70;;;;;;6173044;23;20876;-76
2024/04/07 05:21:07;;;;;;;5.83;2.00;;;17.10;70.80;;;;;;6170258;23;20204;-74
2024/04/07 05:23:35;;;;;;;5.53;2.00;;;17.10;71.00;;;;;;6169536;23;20476;-75
2024/04/07 05:26:17;;;;;;;5.03;2.03;;;17.10;71.00;;;;;;6169590;23;20476;-75
2024/04/07 05:28:43;;;;;;;2.03;1.43;;;17.20;71.20;;;;;;6195417;23;20786;-74
2024/04/07 05:31:11;;;;;;;3.83;1.40;;;17.20;71.30;;;;;;6170642;23;20365;-75
2024/04/07 05:33:46;;;;;;;2.50;1.30;;;17.20;71.50;;;;;;6146338;23;20379;-74
2024/04/07 05:36:12;;;;;;;2.37;1.27;;;17.10;71.60;;;;;;6170987;23;20409;-75
2024/04/07 05:38:39;;;;;;;2.47;1.07;;;17.10;71.90;;;;;;6195633;23;20345;-75
2024/04/07 05:41:06;;;;;;;3.60;1.50;;;17.10;72.10;;;;;;6195604;23;20369;-76
2024/04/07 05:43:32;;;;;;;2.57;1.47;;;17.10;72.20;;;;;;6173267;23;20382;-75
2024/04/07 05:46:03;;;;;;;2.50;1.33;;;17.10;72.30;;;;;;6146307;23;20373;-76
2024/04/07 05:48:29;;;;;;;2.97;1.77;;;17.10;72.40;;;;;;6196366;23;20374;-74
2024/04/07 05:50:56;;;;;;;2.57;1.27;;;17.10;72.50;;;;;;6196769;23;20790;-77
2024/04/07 05:53:22;;;;;;;1.63;1.20;;;17.10;72.50;;;;;;6173760;23;20436;-79
2024/04/07 05:55:49;;;;;;;2.33;1.23;;;17.10;72.70;;;;;;6180296;23;20389;-78
2024/04/07 05:58:16;;;;;;;1.33;0.90;;;17.10;72.80;;;;;;6200131;23;20405;-76
2024/04/07 06:00:42;;;;;;;1.40;1.20;;;17.10;73.00;;;;;;6150921;23;20185;-78
2024/04/07 06:03:08;;;;;;;1.90;1.30;;;17.10;73.00;;;;;;6200271;23;20377;-76
2024/04/07 06:05:36;;;;;;;1.87;1.20;;;17.10;73.80;;;;;;6170699;23;20419;-75
2024/04/07 06:08:03;;;;;;;4.50;1.40;;;17.10;72.80;;;;;;6198782;23;20213;-75
2024/04/07 06:10:29;;;;;;;6.10;1.90;;;17.20;72.80;;;;;;6197429;23;20378;-75
2024/04/07 06:12:55;;;;;;;2.93;1.40;;;17.20;72.60;;;;;;6198158;23;20624;-76
2024/04/07 06:15:21;;;;;;;6.93;2.03;;;17.30;72.50;;;;;;6174392;23;20566;-75
2024/04/07 06:17:50;;;;;;;4.30;1.93;;;17.30;72.00;;;;;;6174043;23;20173;-74
2024/04/07 06:20:16;;;;;;;4.83;1.83;;;17.30;71.80;;;;;;6199630;23;20437;-76
2024/04/07 06:22:42;;;;;;;5.40;1.50;;;17.40;71.70;;;;;;6199829;23;20448;-75
2024/04/07 06:25:08;;;;;;;1.90;1.13;;;17.50;71.50;;;;;;6199697;23;20377;-76
2024/04/07 06:27:35;;;;;;;2.73;1.20;;;17.50;71.20;;;;;;6173074;23;20182;-76
2024/04/07 06:30:03;;;;;;;2.50;1.10;;;17.50;71.00;;;;;;6201772;23;20401;-76
2024/04/07 06:32:29;;;;;;;3.83;1.80;;;17.60;70.80;;;;;;6203285;23;20367;-76
2024/04/07 06:34:57;;;;;;;2.07;1.30;;;17.60;70.40;;;;;;6176150;23;20374;-76
2024/04/07 06:37:23;;;;;;;2.77;1.20;;;17.60;70.40;;;;;;6199103;23;20193;-77
2024/04/07 06:39:48;;;;;;;2.97;1.40;;;17.60;70.20;;;;;;6200902;23;20351;-75
2024/04/07 06:42:27;;;;;;;2.13;1.40;;;17.60;69.70;;;;;;6204914;23;20373;-77
2024/04/07 06:44:53;;;;;;;2.90;1.30;;;17.70;69.70;;;;;;6177378;23;20152;-76
2024/04/07 06:47:20;;;;;;;1.70;0.90;;;17.80;69.30;;;;;;6178649;23;20413;-75
2024/04/07 06:49:54;;;;;;;2.57;1.70;;;17.80;68.70;;;;;;6201931;23;20378;-76
2024/04/07 06:52:21;;;;;;;1.90;1.10;;;17.90;68.30;;;;;;6173150;23;20412;-77
2024/04/07 06:54:47;;;;;;;2.10;1.17;;;18.00;67.90;;;;;;6150031;23;20651;-75
2024/04/07 06:57:14;;;;;;;2.73;1.17;;;18.10;67.90;;;;;;6199705;23;20405;-75
2024/04/07 06:59:40;;;;;;;4.10;1.00;;;18.10;67.70;;;;;;6175480;23;20358;-77
2024/04/07 07:02:06;;;;;;;2.60;1.10;;;18.20;67.20;;;;;;6174266;23;20389;-75
2024/04/07 07:04:33;;;;;;;2.43;1.23;;;18.30;66.60;;;;;;6200471;23;20416;-75
2024/04/07 07:06:59;;;;;;;1.97;1.20;;;18.40;66.10;;;;;;6175226;23;20205;-76
2024/04/07 07:09:26;;;;;;;3.10;1.50;;;18.50;65.60;;;;;;6198389;23;20409;-76
2024/04/07 07:11:51;;;;;;;2.90;1.63;;;18.70;65.20;;;;;;6149538;23;20158;-75
2024/04/07 07:14:17;;;;;;;2.70;1.30;;;18.80;64.60;;;;;;6175727;23;20377;-75
2024/04/07 07:16:43;;;;;;;2.20;1.20;;;18.90;64.40;;;;;;6198857;23;20162;-76
2024/04/07 07:19:10;;;;;;;1.93;1.00;;;19.10;64.20;;;;;;6206751;23;20181;-81
2024/04/07 07:21:45;;;;;;;3.33;1.23;;;19.20;64.20;;;;;;6176788;23;20162;-75
2024/04/07 07:24:11;;;;;;;3.20;1.43;;;19.40;63.80;;;;;;6199607;23;20408;-77
2024/04/07 07:26:37;;;;;;;2.70;1.10;;;19.50;63.50;;;;;;6177099;23;20526;-77
2024/04/07 07:29:03;;;;;;;2.27;1.20;;;19.60;63.60;;;;;;6152938;23;20173;-76
2024/04/07 07:31:29;;;;;;;2.57;1.10;;;19.60;63.20;;;;;;6200773;23;20169;-77
2024/04/07 07:33:55;;;;;;;2.17;1.10;;;19.60;63.20;;;;;;6174750;23;20374;-75
2024/04/07 07:36:22;;;;;;;2.80;1.50;;;19.60;63.20;;;;;;6174343;23;20393;-76
2024/04/07 07:38:47;;;;;;;2.90;1.47;;;19.70;63.50;;;;;;6200118;23;20366;-76
2024/04/07 07:41:18;;;;;;;1.90;1.30;;;19.70;63.30;;;;;;6175318;23;20381;-76
2024/04/07 07:43:45;;;;;;;3.23;1.90;;;19.90;63.50;;;;;;6200069;23;20210;-76
2024/04/07 07:46:10;;;;;;;1.63;1.20;;;20.00;63.30;;;;;;6173039;23;20418;-76
2024/04/07 07:48:39;;;;;;;3.30;1.30;;;20.10;63.10;;;;;;6172520;23;20385;-76
2024/04/07 07:51:08;;;;;;;2.20;1.20;;;20.10;62.80;;;;;;6198184;23;20135;-76
2024/04/07 07:53:34;;;;;;;2.93;1.10;;;20.20;62.90;;;;;;6199472;23;20385;-76
2024/04/07 07:56:00;;;;;;;4.00;1.50;;;20.30;63.00;;;;;;6151223;23;20365;-75
2024/04/07 07:58:26;;;;;;;3.80;1.90;;;20.40;62.70;;;;;;6173856;23;20366;-75
2024/04/07 08:00:53;;;;;;;4.07;1.70;;;20.50;62.30;;;;;;6176796;23;20377;-78
2024/04/07 08:03:19;;;;;;;3.37;1.50;;;20.60;62.30;;;;;;6152058;23;20151;-75
2024/04/07 08:05:44;;;;;;;4.03;1.67;;;20.60;62.20;;;;;;6200903;23;20558;-76
2024/04/07 08:08:10;;;;;;;3.63;1.57;;;20.70;62.00;;;;;;6202308;23;20211;-77
2024/04/07 08:10:36;;;;;;;4.30;2.63;;;20.80;61.80;;;;;;6151595;23;20166;-77
2024/04/07 08:13:03;;;;;;;4.90;2.13;;;20.80;61.50;;;;;;6152700;23;20564;-75
2024/04/07 08:15:28;;;;;;;4.80;1.93;;;20.70;61.80;;;;;;6177448;23;20381;-75
2024/04/07 08:17:54;;;;;;;3.87;1.80;;;20.60;62.20;;;;;;6203317;23;20162;-77
2024/04/07 08:20:20;;;;;;;4.40;1.77;;;20.50;61.90;;;;;;6200157;23;20185;-78
2024/04/07 08:22:47;;;;;;;3.40;1.33;;;20.50;61.80;;;;;;6238955;23;20162;-76
2024/04/07 08:25:13;;;;;;;3.33;1.63;;;20.50;61.60;;;;;;6215267;23;20141;-78
2024/04/07 08:27:39;;;;;;;4.30;2.70;;;20.50;61.30;;;;;;6186555;23;20471;-77
2024/04/07 08:30:07;;;;;;;4.03;2.20;;;20.50;60.50;;;;;;6234850;23;20142;-78
2024/04/07 08:32:33;;;;;;;5.77;1.93;;;20.60;60.10;;;;;;6146371;23;20156;-77
2024/04/07 08:34:58;;;;;;;4.50;2.00;;;20.60;60.20;;;;;;6143140;23;20354;-78
2024/04/07 08:37:27;;;;;;;4.30;1.87;;;20.60;59.50;;;;;;6143513;23;20178;-76
2024/04/07 08:39:53;;;;;;;5.40;1.87;;;20.60;59.70;;;;;;6142213;23;20136;-77
2024/04/07 08:42:20;;;;;;;3.50;1.77;;;20.60;59.40;;;;;;6144021;23;20394;-77
2024/04/07 08:44:47;;;;;;;4.17;2.20;;;20.60;58.50;;;;;;6143561;23;20200;-77
2024/04/07 08:47:16;;;;;;;6.37;1.97;;;20.50;58.50;;;;;;6141680;23;20431;-77
2024/04/07 08:49:43;;;;;;;3.03;1.90;;;20.60;57.60;;;;;;6142327;23;20418;-76
2024/04/07 08:52:09;;;;;;;5.83;1.90;;;20.70;56.80;;;;;;6141506;23;20394;-76
2024/04/07 08:54:36;;;;;;;3.33;1.87;;;20.90;56.50;;;;;;6143588;23;20415;-75
2024/04/07 08:57:09;;;;;;;3.47;2.03;;;21.00;56.10;;;;;;6144040;23;20536;-77
2024/04/07 08:59:35;;;;;;;3.63;1.87;;;21.30;55.80;;;;;;6145372;23;20380;-76
2024/04/07 09:02:05;;;;;;;2.00;1.40;;;21.40;54.40;;;;;;6142900;23;20376;-76
2024/04/07 09:04:32;;;;;;;2.70;1.50;;;21.60;53.50;;;;;;6226857;23;20393;-77
2024/04/07 09:07:06;;;;;;;4.37;1.60;;;21.80;53.40;;;;;;6237398;23;20393;-77
2024/04/07 09:09:32;;;;;;;2.63;1.10;;;21.90;52.50;;;;;;6184378;23;20393;-78
2024/04/07 09:12:01;;;;;;;4.77;1.50;;;21.90;52.50;;;;;;6210038;23;20344;-78
2024/04/07 09:14:34;;;;;;;2.83;1.37;;;21.90;52.30;;;;;;6211213;23;20173;-76
2024/04/07 09:17:09;;;;;;;2.43;1.13;;;21.90;52.40;;;;;;6186779;23;20437;-78
2024/04/07 09:19:37;;;;;;;3.17;1.40;;;21.90;52.30;;;;;;6235695;23;20424;-79
2024/04/07 09:22:07;;;;;;;3.70;1.30;;;21.90;52.00;;;;;;6235378;23;20385;-78
2024/04/07 09:24:35;;;;;;;2.37;1.20;;;21.90;52.00;;;;;;6211042;23;20346;-77
2024/04/07 09:27:05;;;;;;;3.77;1.30;;;22.00;51.60;;;;;;6186147;23;20686;-76
2024/04/07 09:29:31;;;;;;;3.70;1.70;;;22.10;51.10;;;;;;6236453;23;20425;-79
2024/04/07 09:31:59;;;;;;;3.03;1.50;;;22.10;51.10;;;;;;6189172;23;20384;-79
2024/04/07 09:34:25;;;;;;;3.40;1.93;;;22.10;50.50;;;;;;6188820;23;20377;-78
2024/04/07 09:36:52;;;;;;;3.20;1.40;;;22.20;49.70;;;;;;6236503;23;20423;-77
2024/04/07 09:39:18;;;;;;;1.53;1.00;;;22.20;49.30;;;;;;6238981;23;20154;-79
2024/04/07 09:41:46;;;;;;;3.43;1.57;;;22.20;49.20;;;;;;6213069;23;20386;-76
2024/04/07 09:44:13;;;;;;;3.97;1.40;;;22.20;48.10;;;;;;6237212;23;20182;-77
2024/04/07 09:46:40;;;;;;;2.50;1.43;;;22.20;48.10;;;;;;6211070;23;20409;-76
2024/04/07 09:49:09;;;;;;;2.60;1.20;;;22.10;48.60;;;;;;6185345;23;20377;-78
2024/04/07 09:51:54;;;;;;;4.77;1.50;;;22.10;48.60;;;;;;6212845;23;20385;-79
2024/04/07 09:54:32;;;;;;;4.77;1.53;;;22.20;48.10;;;;;;6212336;23;20357;-77
2024/04/07 09:56:59;;;;;;;2.93;1.13;;;22.30;48.90;;;;;;6212859;23;20439;-78
2024/04/07 09:59:26;;;;;;;2.30;1.43;;;22.40;48.20;;;;;;6153684;23;20393;-81
2024/04/07 10:01:53;;;;;;;1.80;1.10;;;22.50;48.00;;;;;;6175189;23;20364;-77
2024/04/07 10:04:24;;;;;;;2.90;1.40;;;22.60;48.00;;;;;;6175124;23;20371;-79
2024/04/07 10:06:52;;;;;;;3.57;1.70;;;22.70;47.80;;;;;;6151401;23;20422;-77
2024/04/07 10:09:18;;;;;;;3.47;1.27;;;22.70;47.70;;;;;;6199728;23;20387;-78
2024/04/07 10:11:48;;;;;;;2.10;1.30;;;22.70;47.80;;;;;;6175022;23;20373;-78
2024/04/07 10:14:18;;;;;;;2.20;1.17;;;22.80;47.70;;;;;;6201647;23;20151;-77
2024/04/07 10:16:51;;;;;;;2.47;1.13;;;22.80;47.80;;;;;;6177837;23;20394;-79
2024/04/07 10:19:26;;;;;;;1.67;0.90;;;22.70;47.90;;;;;;6199365;23;20421;-77
2024/04/07 10:21:52;;;;;;;2.60;1.03;;;22.80;48.10;;;;;;6174970;23;20420;-78
2024/04/07 10:24:18;;;;;;;3.53;1.47;;;22.80;48.10;;;;;;6150487;23;20353;-76
2024/04/07 10:26:58;;;;;;;2.00;1.50;;;22.80;48.20;;;;;;6199222;23;20707;-78
2024/04/07 10:29:30;;;;;;;3.70;1.23;;;22.80;48.30;;;;;;6130090;23;20371;-82
2024/04/07 10:31:57;;;;;;;2.13;1.33;;;22.70;48.20;;;;;;6181919;23;20425;-78
2024/04/07 10:34:23;;;;;;;3.57;1.23;;;22.70;48.40;;;;;;6181994;23;20449;-79
2024/04/07 10:36:53;;;;;;;2.93;1.10;;;22.70;48.30;;;;;;6158575;23;20417;-76
2024/04/07 10:39:23;;;;;;;3.93;1.00;;;22.70;48.70;;;;;;6208449;23;20138;-78
2024/04/07 10:41:50;;;;;;;2.20;1.37;;;22.90;48.50;;;;;;6208894;23;20357;-80
2024/04/07 10:44:20;;;;;;;3.47;1.20;;;23.20;48.30;;;;;;6184103;23;20373;-79
2024/04/07 10:46:46;;;;;;;2.20;1.10;;;23.40;48.20;;;;;;6161421;23;20426;-78
2024/04/07 10:49:13;;;;;;;3.53;1.80;;;23.60;47.70;;;;;;6185301;23;20371;-78
2024/04/07 10:51:38;;;;;;;3.33;1.40;;;23.80;47.50;;;;;;6207990;23;20405;-79
2024/04/07 10:54:07;;;;;;;3.07;1.77;;;23.90;47.30;;;;;;6181256;23;20425;-77
2024/04/07 10:56:34;;;;;;;6.43;1.47;;;23.90;47.30;;;;;;6182802;23;20198;-78
2024/04/07 10:59:02;;;;;;;2.00;1.33;;;24.00;47.30;;;;;;6207608;23;20466;-79
2024/04/07 11:01:28;;;;;;;4.63;2.13;;;24.00;47.30;;;;;;6206950;23;20384;-79
2024/04/07 11:03:59;;;;;;;3.43;1.37;;;24.10;47.10;;;;;;6181761;23;20384;-80
2024/04/07 11:06:26;;;;;;;5.77;1.80;;;24.10;47.00;;;;;;6183271;23;20417;-78
2024/04/07 11:08:52;;;;;;;4.73;1.97;;;24.10;46.80;;;;;;6181218;23;20370;-79
2024/04/07 11:11:22;;;;;;;5.60;1.50;;;24.10;47.10;;;;;;6207172;23;20341;-78
2024/04/07 11:13:50;;;;;;;1.90;1.20;;;24.20;47.20;;;;;;6207518;23;20362;-80
2024/04/07 11:16:16;;;;;;;4.30;1.70;;;24.20;47.40;;;;;;6181356;23;20391;-77
2024/04/07 11:18:42;;;;;;;2.80;1.43;;;24.30;47.10;;;;;;6207031;23;20366;-81
2024/04/07 11:21:10;;;;;;;3.93;1.43;;;24.30;46.90;;;;;;6213315;23;20216;-79
2024/04/07 11:23:39;;;;;;;3.73;1.90;;;24.30;46.80;;;;;;6211189;23;20416;-78
2024/04/07 11:26:06;;;;;;;4.20;2.20;;;24.40;46.50;;;;;;6210975;23;20401;-77
2024/04/07 11:28:33;;;;;;;2.87;1.60;;;24.30;46.30;;;;;;6238144;23;20361;-78
2024/04/07 11:30:58;;;;;;;3.10;1.43;;;24.30;46.70;;;;;;6213778;23;20437;-78
2024/04/07 11:33:25;;;;;;;2.87;1.43;;;24.20;46.40;;;;;;6211314;23;20154;-78
2024/04/07 11:35:53;;;;;;;2.87;1.20;;;24.00;46.30;;;;;;6236154;23;20178;-77
2024/04/07 11:38:18;;;;;;;2.13;1.17;;;24.00;46.60;;;;;;6210104;23;20369;-77
2024/04/07 11:40:44;;;;;;;5.90;1.83;;;24.10;46.70;;;;;;6185966;23;20339;-79
2024/04/07 11:43:10;;;;;;;2.63;1.40;;;24.20;46.10;;;;;;6239820;23;20158;-80
2024/04/07 11:45:38;;;;;;;2.87;1.27;;;24.30;46.30;;;;;;6189091;23;20153;-77
2024/04/07 11:48:06;;;;;;;2.43;1.50;;;24.50;46.00;;;;;;6187513;23;20486;-80
2024/04/07 11:50:36;;;;;;;2.90;1.20;;;24.80;45.90;;;;;;6213296;23;20661;-80
2024/04/07 11:53:03;;;;;;;1.80;1.40;;;24.90;45.10;;;;;;6215361;23;20381;-79
2024/04/07 11:55:29;;;;;;;2.13;1.10;;;25.00;45.00;;;;;;6214799;23;20387;-79
2024/04/07 11:57:55;;;;;;;3.27;1.47;;;25.10;45.00;;;;;;6189073;23;20181;-78
2024/04/07 12:00:21;;;;;;;3.57;1.40;;;25.10;44.60;;;;;;6240798;23;20357;-80
2024/04/07 12:02:47;;;;;;;2.53;1.10;;;25.20;44.50;;;;;;6238885;23;20460;-79
2024/04/07 12:05:13;;;;;;;1.73;1.07;;;25.30;44.60;;;;;;6211956;23;20146;-77
2024/04/07 12:07:43;;;;;;;2.93;2.00;;;25.40;44.70;;;;;;6187903;23;20182;-79
2024/04/07 12:10:10;;;;;;;2.80;1.40;;;25.50;44.30;;;;;;6187597;23;20336;-78
2024/04/07 12:12:36;;;;;;;2.63;1.37;;;25.60;44.10;;;;;;6213150;23;20369;-80
2024/04/07 12:15:04;;;;;;;2.67;1.40;;;25.60;43.40;;;;;;6239835;23;20379;-79
2024/04/07 12:17:32;;;;;;;2.60;1.27;;;25.40;42.60;;;;;;6212965;23;20158;-81
2024/04/07 12:19:58;;;;;;;6.43;1.30;;;25.20;43.00;;;;;;6214124;23;20486;-80
2024/04/07 12:22:37;;;;;;;2.50;1.27;;;25.00;43.30;;;;;;6243206;23;20512;-80
2024/04/07 12:25:04;;;;;;;2.70;1.33;;;24.90;43.30;;;;;;6216952;23;20377;-78
2024/04/07 12:27:32;;;;;;;2.60;1.30;;;24.90;42.90;;;;;;6240101;23;20399;-80
2024/04/07 12:29:58;;;;;;;9.67;1.40;;;24.80;43.20;;;;;;6238826;23;20360;-77
2024/04/07 12:32:24;;;;;;;2.60;1.17;;;24.80;43.00;;;;;;6213094;23;20428;-80
2024/04/07 12:34:51;;;;;;;4.90;1.37;;;24.80;42.90;;;;;;6238676;23;20142;-79
2024/04/07 12:37:18;;;;;;;2.77;1.43;;;25.00;42.30;;;;;;6147993;23;20563;-79
2024/04/07 12:39:43;;;;;;;2.70;1.60;;;24.90;42.50;;;;;;6154113;23;20433;-78
2024/04/07 12:42:09;;;;;;;3.27;1.33;;;24.80;42.70;;;;;;6179621;23;20362;-80
2024/04/07 12:44:35;;;;;;;2.40;1.33;;;24.90;42.90;;;;;;6178906;23;20363;-79
2024/04/07 12:47:01;;;;;;;5.17;1.57;;;24.90;42.90;;;;;;6151467;23;20187;-78
2024/04/07 12:49:28;;;;;;;3.90;1.70;;;24.90;43.20;;;;;;6177026;23;20375;-76
2024/04/07 12:51:53;;;;;;;4.07;1.43;;;24.90;43.50;;;;;;6153953;23;20378;-77